< Cyclone 199809 1999 Season Cyclone 199902 >
Cyclone 199901 (ZELIA)
General InformationDetailed Track InformationTrack Information on Google MapsList of All Images || ResourceGoogle EarthGE AnimationAtom FeedGeoJSON
Detalied Best Track Wind (Time Zone = UTC)
Year Month Day Hour Lat. Long. Wind (kt) Gust (kt) Direc. of Major Storm Axis Radius of Major Storm Axis (nm) Radius of Minor Storm Axis (nm) Direc. of Major Gale Axis Radius of Major Gale Axis (nm) Radius of Minor Gale Axis (nm) Image
1998 10 7 06 -11.2 93.0 23 -1 symmetric - - symmetric - - Image
1998 10 7 09 -11.8 93.6 27 -1 symmetric - - symmetric - - Image
1998 10 7 12 -12.3 93.8 29 -1 symmetric - - symmetric - - Image
1998 10 7 15 -12.8 94.0 29 -1 symmetric - - symmetric - - Image
1998 10 7 18 -13.1 94.0 33 -1 symmetric - - symmetric - - Image
1998 10 7 21 -13.4 94.1 35 -1 symmetric - - symmetric - - Image
1998 10 8 00 -13.8 94.2 35 -1 symmetric - - symmetric - - Image
1998 10 8 03 -14.1 94.4 37 -1 symmetric - - symmetric - - Image
1998 10 8 06 -14.3 94.6 39 -1 symmetric - - symmetric - - Image
1998 10 8 09 -14.5 94.8 41 -1 symmetric - - symmetric - - Image
1998 10 8 12 -14.6 95.0 41 -1 symmetric - - symmetric - - Image
1998 10 8 15 -14.7 95.1 41 -1 symmetric - - symmetric - - Image
1998 10 8 18 -14.8 95.2 39 -1 symmetric - - symmetric - - Image
1998 10 8 21 -14.8 95.3 39 -1 symmetric - - symmetric - - Image
1998 10 9 00 -14.7 95.4 35 -1 symmetric - - symmetric - - Image
1998 10 9 03 -14.6 95.5 33 -1 symmetric - - symmetric - - Image
1998 10 9 06 -14.5 95.6 29 -1 symmetric - - symmetric - - Image
1998 10 9 09 -14.4 95.8 29 -1 symmetric - - symmetric - - Image
1998 10 9 12 -14.4 96.0 27 -1 symmetric - - symmetric - - Image
1998 10 9 15 -14.4 96.3 25 -1 symmetric - - symmetric - - Image
1998 10 9 18 -14.4 96.5 25 -1 symmetric - - symmetric - - Image
1998 10 9 21 -14.4 96.5 23 -1 symmetric - - symmetric - - Image
1998 10 10 00 -14.3 96.2 23 -1 symmetric - - symmetric - - Image
1998 10 10 03 -14.1 95.8 23 -1 symmetric - - symmetric - - Image
1998 10 10 06 -13.9 95.5 21 -1 symmetric - - symmetric - - Image
1998 10 10 09 -13.8 95.3 19 -1 symmetric - - symmetric - - Image
< Cyclone 199809 1999 Season Cyclone 199902 >

Help